Time;durP1;ratioP1;P1;durP2;ratioP2;P2;SDS_P1;SDS_P2;PMS_P1;PMS_P2;Temp;Humidity;BMP_temperature;BMP_pressure;BME280_temperature;BME280_humidity;BME280_pressure;Samples;Min_cycle;Max_cycle;Signal;HPM_P1;HPM_P2
2024/03/07 00:00:53;;;;;;;34.80;26.00;;;;;;;3.10;100.00;99434.40;109708;1250;59012;-73
2024/03/07 00:03:33;;;;;;;34.30;25.30;;;;;;;3.10;100.00;99432.45;109711;1251;59041;-75
2024/03/07 00:06:00;;;;;;;36.30;25.80;;;;;;;3.11;100.00;99434.73;109689;1250;66116;-73
2024/03/07 00:08:26;;;;;;;29.30;22.70;;;;;;;3.10;100.00;99432.46;109540;1250;60303;-73
2024/03/07 00:10:53;;;;;;;27.10;20.20;;;;;;;3.08;100.00;99428.12;109664;1250;58992;-73
2024/03/07 00:13:21;;;;;;;25.90;20.20;;;;;;;3.07;100.00;99431.66;109657;1251;59126;-74
2024/03/07 00:15:47;;;;;;;27.60;20.00;;;;;;;3.06;100.00;99432.39;109663;1250;59120;-73
2024/03/07 00:18:15;;;;;;;28.20;19.40;;;;;;;3.06;100.00;99430.98;109717;1250;59595;-73
2024/03/07 00:20:42;;;;;;;27.90;20.20;;;;;;;3.06;100.00;99430.45;109692;1250;59031;-74
2024/03/07 00:23:09;;;;;;;26.50;18.90;;;;;;;3.07;100.00;99431.67;109681;1250;64192;-74
2024/03/07 00:25:35;;;;;;;25.70;18.20;;;;;;;3.06;100.00;99429.58;109680;1250;59106;-73
2024/03/07 00:28:03;;;;;;;29.10;21.60;;;;;;;3.06;100.00;99428.70;109659;1250;59045;-73
2024/03/07 00:30:29;;;;;;;26.40;20.50;;;;;;;3.07;100.00;99429.55;109696;1251;64888;-73
2024/03/07 00:32:57;;;;;;;27.40;18.10;;;;;;;3.08;100.00;99431.29;109691;1250;60109;-73
2024/03/07 00:35:24;;;;;;;24.70;17.60;;;;;;;3.07;100.00;99431.66;109652;1250;63780;-74
2024/03/07 00:37:51;;;;;;;26.70;20.30;;;;;;;3.07;100.00;99432.53;109666;1250;59312;-73
2024/03/07 00:40:17;;;;;;;27.00;20.60;;;;;;;3.07;100.00;99427.98;109709;1250;59028;-73
2024/03/07 00:42:44;;;;;;;28.30;19.30;;;;;;;3.06;100.00;99427.67;109679;1250;59167;-74
2024/03/07 00:45:11;;;;;;;27.70;19.10;;;;;;;3.06;100.00;99431.70;108926;1251;1002438;-72
2024/03/07 00:47:38;;;;;;;26.20;18.90;;;;;;;3.07;100.00;99430.10;109664;1250;64081;-73
2024/03/07 00:50:05;;;;;;;27.40;19.20;;;;;;;3.07;100.00;99425.67;109719;1250;59203;-73
2024/03/07 00:52:32;;;;;;;27.00;17.50;;;;;;;3.08;100.00;99424.80;109694;1250;59167;-74
2024/03/07 00:54:58;;;;;;;27.30;18.70;;;;;;;3.08;100.00;99428.65;109706;1250;66420;-75
2024/03/07 00:57:25;;;;;;;25.50;19.10;;;;;;;3.09;100.00;99424.42;109692;1250;59361;-74
2024/03/07 00:59:51;;;;;;;33.00;22.00;;;;;;;3.11;100.00;99427.70;109686;1251;59057;-73
2024/03/07 01:02:18;;;;;;;28.50;19.20;;;;;;;3.11;100.00;99424.55;109668;1250;58961;-74
2024/03/07 01:04:44;;;;;;;28.40;20.60;;;;;;;3.11;100.00;99422.61;109384;1250;58970;-73
2024/03/07 01:07:11;;;;;;;32.00;20.50;;;;;;;3.10;100.00;99422.45;109701;1250;59189;-74
2024/03/07 01:09:37;;;;;;;35.10;22.00;;;;;;;3.10;100.00;99418.06;109701;1251;60614;-73
2024/03/07 01:12:05;;;;;;;31.40;21.60;;;;;;;3.11;100.00;99418.05;109700;1250;62710;-73
2024/03/07 01:14:32;;;;;;;30.60;20.10;;;;;;;3.11;100.00;99415.94;108899;1250;1002462;-73
2024/03/07 01:16:58;;;;;;;31.90;20.70;;;;;;;3.09;100.00;99422.13;109718;1250;59086;-73
2024/03/07 01:19:25;;;;;;;31.10;21.50;;;;;;;3.09;100.00;99416.34;109694;1251;59117;-72
2024/03/07 01:21:52;;;;;;;32.30;21.60;;;;;;;3.09;100.00;99419.14;109712;1250;59007;-72
2024/03/07 01:24:20;;;;;;;31.10;21.00;;;;;;;3.09;100.00;99414.23;109691;1251;59500;-73
2024/03/07 01:26:46;;;;;;;32.00;20.60;;;;;;;3.08;100.00;99414.80;109681;1250;59222;-72
2024/03/07 01:29:13;;;;;;;35.50;22.30;;;;;;;3.08;100.00;99413.37;109634;1250;59836;-72
2024/03/07 01:31:40;;;;;;;33.50;22.30;;;;;;;3.07;100.00;99411.30;109673;1250;66813;-72
2024/03/07 01:34:06;;;;;;;30.10;20.60;;;;;;;3.07;100.00;99410.59;109714;1251;59820;-73
2024/03/07 01:36:33;;;;;;;34.10;22.10;;;;;;;3.06;100.00;99412.73;109690;1250;59228;-73
2024/03/07 01:38:59;;;;;;;33.60;21.50;;;;;;;3.06;100.00;99413.81;109646;1250;59178;-73
2024/03/07 01:41:26;;;;;;;32.90;21.40;;;;;;;3.04;100.00;99407.71;109664;1250;59025;-74
2024/03/07 01:43:52;;;;;;;33.40;21.60;;;;;;;3.03;100.00;99407.39;109682;1251;59091;-74
2024/03/07 01:46:19;;;;;;;33.60;21.70;;;;;;;3.03;100.00;99410.73;109508;1250;59095;-74
2024/03/07 01:48:47;;;;;;;30.00;19.40;;;;;;;3.02;100.00;99410.23;109648;1251;62851;-72
2024/03/07 01:51:15;;;;;;;29.50;20.30;;;;;;;3.01;100.00;99410.61;109661;1251;59130;-73
2024/03/07 01:53:42;;;;;;;36.00;23.10;;;;;;;3.00;100.00;99413.80;109694;1250;59085;-73
2024/03/07 01:56:09;;;;;;;31.40;21.40;;;;;;;3.00;100.00;99412.73;109707;1251;66154;-73
2024/03/07 01:58:36;;;;;;;33.10;22.30;;;;;;;3.01;100.00;99413.42;109484;1251;59851;-73
2024/03/07 02:01:03;;;;;;;32.50;21.30;;;;;;;3.01;100.00;99411.15;109360;1251;64085;-73
2024/03/07 02:03:29;;;;;;;31.70;21.60;;;;;;;3.00;100.00;99414.50;109684;1250;59002;-73
2024/03/07 02:05:56;;;;;;;32.00;21.20;;;;;;;3.00;100.00;99411.35;108928;1250;1002779;-73
2024/03/07 02:08:23;;;;;;;32.60;22.00;;;;;;;2.99;100.00;99406.96;109387;1250;59445;-73
2024/03/07 02:10:49;;;;;;;31.20;20.50;;;;;;;2.99;100.00;99404.52;109675;1251;59017;-73
2024/03/07 02:13:16;;;;;;;29.10;21.80;;;;;;;2.98;100.00;99405.08;109675;1251;59041;-73
2024/03/07 02:15:43;;;;;;;34.70;21.30;;;;;;;2.97;100.00;99404.39;109667;1250;59305;-73
2024/03/07 02:18:10;;;;;;;33.60;22.30;;;;;;;2.97;100.00;99403.00;109701;1250;59355;-74
2024/03/07 02:20:36;;;;;;;33.50;21.50;;;;;;;2.96;100.00;99402.33;109674;1251;66042;-73
2024/03/07 02:23:03;;;;;;;32.30;21.50;;;;;;;2.95;100.00;99399.90;109683;1251;59066;-74
2024/03/07 02:25:30;;;;;;;32.40;21.90;;;;;;;2.94;100.00;99396.05;109650;1250;64001;-73
2024/03/07 02:27:56;;;;;;;34.90;22.60;;;;;;;2.93;100.00;99398.54;109670;1249;59041;-73
2024/03/07 02:30:23;;;;;;;32.10;22.20;;;;;;;2.92;100.00;99400.16;109672;1251;58966;-73
2024/03/07 02:32:53;;;;;;;29.50;20.10;;;;;;;2.92;100.00;99395.78;109725;1251;64830;-72
2024/03/07 02:35:21;;;;;;;32.00;22.40;;;;;;;2.91;100.00;99398.98;109683;1252;60199;-72
2024/03/07 02:37:48;;;;;;;33.70;23.30;;;;;;;2.90;100.00;99398.47;109685;1251;62782;-72
2024/03/07 02:40:15;;;;;;;32.50;22.40;;;;;;;2.90;100.00;99397.59;109626;1251;58982;-73
2024/03/07 02:42:42;;;;;;;33.80;23.60;;;;;;;2.91;100.00;99394.77;108000;1250;1002297;-73
2024/03/07 02:45:10;;;;;;;35.40;23.10;;;;;;;2.91;100.00;99397.73;109637;1251;64829;-74
2024/03/07 02:47:38;;;;;;;35.90;24.30;;;;;;;2.91;100.00;99395.27;109699;1251;59384;-73
2024/03/07 02:50:06;;;;;;;39.60;25.70;;;;;;;2.90;100.00;99397.58;109687;1250;63754;-74
2024/03/07 02:52:32;;;;;;;39.70;25.40;;;;;;;2.90;100.00;99393.91;109677;1250;59011;-72
2024/03/07 02:54:59;;;;;;;39.20;26.80;;;;;;;2.89;100.00;99395.72;109686;1251;59038;-73
2024/03/07 02:57:25;;;;;;;37.90;23.90;;;;;;;2.88;100.00;99398.71;109700;1250;66840;-73
2024/03/07 02:59:52;;;;;;;38.30;25.00;;;;;;;2.88;100.00;99398.70;109646;1250;59088;-73
2024/03/07 03:02:18;;;;;;;41.20;25.40;;;;;;;2.88;100.00;99399.94;109655;1251;59054;-73
2024/03/07 03:04:45;;;;;;;38.70;27.70;;;;;;;2.87;100.00;99399.27;109642;1251;58996;-74
2024/03/07 03:07:11;;;;;;;38.80;26.30;;;;;;;2.87;100.00;99400.85;109679;1251;60693;-74
2024/03/07 03:09:43;;;;;;;41.30;25.60;;;;;;;2.86;100.00;99401.05;109695;1251;59093;-73
2024/03/07 03:12:10;;;;;;;44.00;28.20;;;;;;;2.84;100.00;99399.86;109669;1251;60144;-73
2024/03/07 03:14:36;;;;;;;42.10;26.60;;;;;;;2.83;100.00;99398.69;109650;1250;63974;-73
2024/03/07 03:17:03;;;;;;;39.60;26.40;;;;;;;2.81;100.00;99398.89;109665;1250;58944;-73
2024/03/07 03:19:30;;;;;;;37.60;23.90;;;;;;;2.80;100.00;99398.39;109663;1249;59738;-73
2024/03/07 03:21:57;;;;;;;42.60;27.40;;;;;;;2.80;100.00;99395.26;109707;1251;64501;-72
2024/03/07 03:24:25;;;;;;;37.00;23.70;;;;;;;2.80;100.00;99399.29;109696;1251;59082;-73
2024/03/07 03:26:52;;;;;;;41.70;26.00;;;;;;;2.80;100.00;99397.71;109520;1251;63204;-72
2024/03/07 03:29:18;;;;;;;40.20;25.70;;;;;;;2.81;100.00;99397.86;109669;1249;59077;-73
2024/03/07 03:31:45;;;;;;;42.40;27.70;;;;;;;2.82;100.00;99399.42;109402;1251;58999;-73
2024/03/07 03:34:11;;;;;;;46.40;29.80;;;;;;;2.82;100.00;99398.52;109698;1251;59647;-73
2024/03/07 03:36:38;;;;;;;41.60;27.60;;;;;;;2.83;100.00;99397.29;109519;1251;59117;-73
2024/03/07 03:39:06;;;;;;;36.20;25.20;;;;;;;2.82;100.00;99397.81;109657;1251;62512;-73
2024/03/07 03:41:33;;;;;;;37.70;24.30;;;;;;;2.83;100.00;99399.71;109631;1251;59344;-73
2024/03/07 03:43:59;;;;;;;34.70;23.20;;;;;;;2.85;100.00;99400.21;109666;1249;59023;-73
2024/03/07 03:46:26;;;;;;;36.80;23.20;;;;;;;2.84;100.00;99398.45;109565;1251;59177;-73
2024/03/07 03:48:52;;;;;;;38.40;23.50;;;;;;;2.84;100.00;99399.69;109670;1251;60038;-72
2024/03/07 03:51:21;;;;;;;35.20;23.30;;;;;;;2.85;100.00;99399.34;109687;1250;59040;-73
2024/03/07 03:53:47;;;;;;;39.80;25.90;;;;;;;2.85;100.00;99409.14;109664;1249;58963;-72
2024/03/07 03:56:15;;;;;;;42.30;28.00;;;;;;;2.82;100.00;99409.04;109669;1250;60178;-73
2024/03/07 03:58:43;;;;;;;50.50;29.60;;;;;;;2.80;100.00;99407.38;109683;1251;66037;-72
2024/03/07 04:01:12;;;;;;;47.60;27.50;;;;;;;2.78;100.00;99407.07;109664;1251;60086;-73
2024/03/07 04:03:39;;;;;;;;;;;;;;;2.77;100.00;99407.45;109691;1249;63759;-74
2024/03/07 04:06:06;;;;;;;43.80;26.90;;;;;;;2.74;100.00;99406.30;109384;1251;58973;-74
2024/03/07 04:08:34;;;;;;;45.20;29.30;;;;;;;2.72;100.00;99408.11;109649;1251;59038;-74
2024/03/07 04:11:01;;;;;;;47.40;29.00;;;;;;;2.72;100.00;99410.92;109583;1250;64784;-73
2024/03/07 04:13:28;;;;;;;46.20;29.80;;;;;;;2.71;100.00;99411.14;109558;1250;60470;-73
2024/03/07 04:15:54;;;;;;;47.90;28.40;;;;;;;2.68;100.00;99414.89;109671;1251;64108;-73
2024/03/07 04:18:21;;;;;;;45.00;29.00;;;;;;;2.68;100.00;99417.54;109515;1251;59887;-73
2024/03/07 04:20:47;;;;;;;43.00;27.20;;;;;;;2.67;100.00;99417.91;109664;1250;59030;-73
2024/03/07 04:23:14;;;;;;;47.00;28.00;;;;;;;2.65;100.00;99414.27;109538;1252;66073;-73
2024/03/07 04:25:41;;;;;;;44.20;29.80;;;;;;;2.63;100.00;99415.73;109686;1251;59864;-73
2024/03/07 04:28:07;;;;;;;45.30;28.60;;;;;;;2.63;100.00;99419.60;109663;1250;62685;-72
2024/03/07 04:30:34;;;;;;;45.10;28.00;;;;;;;2.60;100.00;99426.88;109630;1252;59044;-73
2024/03/07 04:33:01;;;;;;;48.10;29.60;;;;;;;2.57;100.00;99423.61;109666;1250;58962;-73
2024/03/07 04:35:27;;;;;;;45.30;28.40;;;;;;;2.55;100.00;99427.36;109695;1251;64508;-74
2024/03/07 04:37:54;;;;;;;45.00;27.60;;;;;;;2.54;100.00;99424.77;109693;1251;60154;-73
2024/03/07 04:40:21;;;;;;;42.00;25.60;;;;;;;2.51;100.00;99425.02;109672;1251;62530;-73
2024/03/07 04:42:49;;;;;;;45.20;27.10;;;;;;;2.49;100.00;99421.57;109639;1250;59310;-72
2024/03/07 04:45:16;;;;;;;39.60;26.10;;;;;;;2.47;100.00;99422.15;109412;1249;59001;-72
2024/03/07 04:47:44;;;;;;;45.10;28.00;;;;;;;2.45;100.00;99422.91;109659;1251;64470;-72
2024/03/07 04:50:12;;;;;;;37.60;24.20;;;;;;;2.41;100.00;99424.23;109573;1251;59047;-73
2024/03/07 04:52:39;;;;;;;45.20;28.00;;;;;;;2.38;100.00;99422.90;109666;1250;63865;-73
2024/03/07 04:55:10;;;;;;;45.90;27.40;;;;;;;2.36;100.00;99426.12;109627;1251;59002;-73
2024/03/07 04:57:39;;;;;;;41.70;26.80;;;;;;;2.35;100.00;99425.80;109665;1251;59147;-72
2024/03/07 05:00:14;;;;;;;44.70;28.20;;;;;;;2.34;100.00;99430.90;109390;1251;65069;-73
2024/03/07 05:02:41;;;;;;;50.60;30.20;;;;;;;2.34;100.00;99433.55;109696;1250;60124;-73
2024/03/07 05:05:08;;;;;;;41.80;25.30;;;;;;;2.33;100.00;99437.42;109661;1250;62640;-73
2024/03/07 05:07:37;;;;;;;46.50;29.40;;;;;;;2.31;100.00;99438.87;109675;1251;59366;-74
2024/03/07 05:10:06;;;;;;;45.80;27.70;;;;;;;2.30;100.00;99440.30;109672;1250;58958;-73
2024/03/07 05:12:33;;;;;;;46.50;29.30;;;;;;;2.29;100.00;99444.00;109658;1251;64518;-73
2024/03/07 05:15:00;;;;;;;45.90;27.50;;;;;;;2.29;100.00;99442.61;109727;1251;59753;-74
2024/03/07 05:17:28;;;;;;;43.90;27.00;;;;;;;2.29;100.00;99446.29;109644;1250;64207;-74
2024/03/07 05:19:55;;;;;;;47.00;29.60;;;;;;;2.29;100.00;99448.76;108921;1250;1002732;-72
2024/03/07 05:22:24;;;;;;;45.40;28.90;;;;;;;2.27;100.00;99451.41;109695;1249;59319;-73
2024/03/07 05:24:51;;;;;;;45.70;28.10;;;;;;;2.27;100.00;99451.08;109661;1251;64547;-74
2024/03/07 05:27:18;;;;;;;49.60;28.70;;;;;;;2.28;100.00;99452.45;109694;1249;59870;-72
2024/03/07 05:29:44;;;;;;;40.10;26.80;;;;;;;2.28;100.00;99455.09;109699;1250;58986;-73
2024/03/07 05:32:20;;;;;;;44.50;27.80;;;;;;;2.28;100.00;99458.41;109488;1249;59117;-73
2024/03/07 05:34:47;;;;;;;45.60;28.80;;;;;;;2.28;100.00;99463.33;109695;1249;59074;-73
2024/03/07 05:37:13;;;;;;;52.50;32.30;;;;;;;2.27;100.00;99462.65;109668;1250;59204;-73
2024/03/07 05:39:40;;;;;;;43.70;29.90;;;;;;;2.26;100.00;99460.73;109705;1250;59309;-73
2024/03/07 05:42:07;;;;;;;45.00;28.80;;;;;;;2.27;100.00;99464.23;109665;1250;65343;-73
2024/03/07 05:44:33;;;;;;;48.30;27.60;;;;;;;2.27;100.00;99464.93;109679;1249;59413;-73
2024/03/07 05:47:00;;;;;;;48.60;29.90;;;;;;;2.27;100.00;99461.08;109676;1251;61245;-73
2024/03/07 05:49:26;;;;;;;48.40;30.10;;;;;;;2.26;100.00;99465.64;109700;1250;59590;-73
2024/03/07 05:51:53;;;;;;;45.30;29.10;;;;;;;2.26;100.00;99463.89;108160;1251;1002227;-73
2024/03/07 05:54:19;;;;;;;47.20;30.30;;;;;;;2.27;100.00;99461.08;109676;1250;59140;-73
2024/03/07 05:56:46;;;;;;;49.40;32.10;;;;;;;2.28;100.00;99459.47;109618;1251;59554;-73
2024/03/07 05:59:12;;;;;;;46.70;29.50;;;;;;;2.29;100.00;99464.87;109679;1250;58994;-73
2024/03/07 06:01:39;;;;;;;49.70;30.30;;;;;;;2.28;100.00;99466.33;109663;1250;59414;-73
2024/03/07 06:04:06;;;;;;;46.70;28.70;;;;;;;2.26;100.00;99471.61;109680;1251;60323;-73
2024/03/07 06:06:35;;;;;;;51.60;30.40;;;;;;;2.24;100.00;99469.37;109682;1250;63774;-73
2024/03/07 06:09:07;;;;;;;46.20;30.10;;;;;;;2.23;100.00;99471.52;109702;1250;59015;-74
2024/03/07 06:11:35;;;;;;;47.60;28.30;;;;;;;2.22;100.00;99471.38;109667;1251;59015;-74
2024/03/07 06:14:03;;;;;;;51.20;31.80;;;;;;;2.20;100.00;99474.73;109670;1250;64868;-73
2024/03/07 06:16:34;;;;;;;49.70;31.00;;;;;;;2.19;100.00;99474.75;109420;1250;59359;-73
2024/03/07 06:19:01;;;;;;;49.60;28.10;;;;;;;2.16;100.00;99479.73;109704;1250;64061;-73
2024/03/07 06:21:32;;;;;;;48.80;30.20;;;;;;;2.15;100.00;99480.30;109638;1250;59719;-74
2024/03/07 06:23:59;;;;;;;45.40;29.50;;;;;;;2.13;100.00;99480.88;109723;1250;59018;-73
2024/03/07 06:26:37;;;;;;;49.30;31.30;;;;;;;2.11;100.00;99480.05;109674;1250;65730;-73
2024/03/07 06:29:07;;;;;;;46.00;29.40;;;;;;;2.10;100.00;99477.63;109641;1250;60316;-74
2024/03/07 06:31:34;;;;;;;;;;;;;;;2.08;100.00;99479.09;109571;1251;62903;-73
2024/03/07 06:34:01;;;;;;;49.20;29.40;;;;;;;2.05;100.00;99481.25;109545;1251;59070;-73
2024/03/07 06:36:28;;;;;;;51.10;31.50;;;;;;;2.04;100.00;99485.14;109586;1251;59304;-73
2024/03/07 06:38:54;;;;;;;48.40;32.10;;;;;;;2.05;100.00;99489.49;109595;1251;65161;-74
2024/03/07 06:41:21;;;;;;;54.20;32.70;;;;;;;2.07;100.00;99491.19;109347;1251;61378;-72
2024/03/07 06:43:49;;;;;;;56.10;33.80;;;;;;;2.08;100.00;99492.03;109353;1250;62914;-73
2024/03/07 06:46:16;;;;;;;53.20;32.90;;;;;;;2.09;100.00;99493.23;109593;1251;59953;-74
2024/03/07 06:48:44;;;;;;;51.20;32.30;;;;;;;2.10;100.00;99492.86;109631;1250;59043;-73
2024/03/07 06:51:10;;;;;;;59.00;32.90;;;;;;;2.13;100.00;99495.25;109580;1251;66852;-72
2024/03/07 06:53:37;;;;;;;49.30;30.80;;;;;;;2.13;100.00;99492.61;109416;1251;60144;-73
2024/03/07 06:56:04;;;;;;;49.30;29.80;;;;;;;2.13;100.00;99497.00;109587;1251;64049;-74
2024/03/07 06:58:31;;;;;;;45.10;27.50;;;;;;;2.12;100.00;99499.30;109579;1251;58948;-75
2024/03/07 07:00:59;;;;;;;50.20;31.20;;;;;;;2.10;100.00;99502.67;109606;1251;58869;-73
2024/03/07 07:03:25;;;;;;;47.80;29.70;;;;;;;2.07;100.00;99504.69;109594;1250;65753;-74
2024/03/07 07:05:52;;;;;;;47.90;31.00;;;;;;;2.05;100.00;99509.29;109579;1251;61281;-73
2024/03/07 07:08:18;;;;;;;51.50;31.30;;;;;;;2.05;100.00;99507.02;109590;1250;59203;-74
2024/03/07 07:10:45;;;;;;;54.50;32.70;;;;;;;2.05;100.00;99510.69;109545;1250;59060;-72
2024/03/07 07:13:13;;;;;;;50.50;32.20;;;;;;;2.06;100.00;99512.77;109603;1250;59023;-74
2024/03/07 07:15:39;;;;;;;54.50;33.50;;;;;;;2.07;100.00;99512.23;109599;1250;66166;-74
2024/03/07 07:18:07;;;;;;;56.20;34.50;;;;;;;2.08;100.00;99509.73;109581;1250;68825;-75
2024/03/07 07:20:36;;;;;;;50.10;31.70;;;;;;;2.10;100.00;99513.02;109558;1250;64261;-74
2024/03/07 07:23:03;;;;;;;55.70;35.50;;;;;;;2.10;100.00;99512.30;109553;1250;58961;-75
2024/03/07 07:25:30;;;;;;;50.70;31.20;;;;;;;2.12;100.00;99509.65;109611;1250;59175;-75
2024/03/07 07:27:57;;;;;;;47.30;30.30;;;;;;;2.14;100.00;99509.95;109547;1251;65304;-74
2024/03/07 07:30:25;;;;;;;45.00;28.20;;;;;;;2.15;100.00;99510.61;109598;1251;59807;-74
2024/03/07 07:32:53;;;;;;;46.80;28.30;;;;;;;2.12;100.00;99512.27;109577;1251;62929;-74
2024/03/07 07:35:20;;;;;;;39.40;26.00;;;;;;;2.10;100.00;99512.48;109598;1250;58976;-74
2024/03/07 07:37:48;;;;;;;37.90;24.10;;;;;;;2.11;100.00;99513.17;109629;1250;58951;-73
2024/03/07 07:40:19;;;;;;;37.10;25.10;;;;;;;2.11;100.00;99515.45;109602;1250;66141;-74
2024/03/07 07:42:46;;;;;;;40.20;26.70;;;;;;;2.09;100.00;99518.64;108603;1251;1002180;-74
2024/03/07 07:45:14;;;;;;;38.70;24.50;;;;;;;2.07;100.00;99516.42;109554;1250;59199;-74
2024/03/07 07:47:43;;;;;;;40.90;26.10;;;;;;;2.03;100.00;99517.74;109550;1251;59271;-74
2024/03/07 07:50:13;;;;;;;40.70;25.10;;;;;;;2.01;100.00;99512.55;109597;1250;59099;-74
2024/03/07 07:52:41;;;;;;;37.80;26.80;;;;;;;2.01;100.00;99511.67;109393;1251;64770;-74
2024/03/07 07:55:14;;;;;;;39.00;27.00;;;;;;;2.03;100.00;99515.84;109410;1251;60167;-74
2024/03/07 07:57:45;;;;;;;41.90;26.40;;;;;;;2.05;100.00;99516.47;109581;1251;62899;-74
2024/03/07 08:00:22;;;;;;;38.60;26.40;;;;;;;2.05;100.00;99519.09;109589;1251;59269;-74
2024/03/07 08:02:56;;;;;;;39.50;28.30;;;;;;;2.06;100.00;99517.67;109410;1250;58947;-73
2024/03/07 08:05:35;;;;;;;47.30;29.90;;;;;;;2.06;100.00;99518.89;109470;1251;73668;-73
2024/03/07 08:08:07;;;;;;;43.60;30.90;;;;;;;2.05;100.00;99516.98;109602;1250;59073;-73
2024/03/07 08:10:35;;;;;;;44.80;30.50;;;;;;;2.07;100.00;99518.70;109480;1251;62904;-74
2024/03/07 08:13:03;;;;;;;40.20;25.80;;;;;;;2.07;100.00;99518.70;109556;1250;58960;-73
2024/03/07 08:15:31;;;;;;;40.40;26.60;;;;;;;2.04;100.00;99521.92;109603;1250;58967;-74
2024/03/07 08:17:59;;;;;;;38.00;26.30;;;;;;;2.03;100.00;99525.11;109562;1250;65743;-74
2024/03/07 08:20:26;;;;;;;45.20;29.10;;;;;;;2.06;100.00;99525.05;109529;1251;59082;-73
2024/03/07 08:22:55;;;;;;;43.00;28.20;;;;;;;2.08;100.00;99523.06;108059;1250;1002796;-73
2024/03/07 08:25:24;;;;;;;38.90;25.20;;;;;;;2.07;100.00;99525.70;109595;1250;59177;-73
2024/03/07 08:27:53;;;;;;;45.20;28.30;;;;;;;2.04;100.00;99524.58;109589;1250;59020;-74
2024/03/07 08:30:20;;;;;;;44.90;29.40;;;;;;;2.03;100.00;99521.79;109475;1253;64834;-73
2024/03/07 08:32:52;;;;;;;42.30;27.20;;;;;;;2.05;100.00;99524.53;109517;1252;60048;-74
2024/03/07 08:35:18;;;;;;;47.50;31.10;;;;;;;2.07;100.00;99530.09;109490;1254;63757;-73
2024/03/07 08:37:52;;;;;;;40.20;26.80;;;;;;;2.10;100.00;99528.27;109460;1252;59324;-73
2024/03/07 08:40:20;;;;;;;42.90;28.40;;;;;;;2.10;100.00;99533.17;109531;1252;58969;-73
2024/03/07 08:42:53;;;;;;;44.30;28.70;;;;;;;2.07;100.00;99538.49;109529;1253;64560;-74
2024/03/07 08:45:20;;;;;;;49.10;33.10;;;;;;;2.07;100.00;99538.16;109515;1253;60168;-73
2024/03/07 08:47:48;;;;;;;42.50;28.50;;;;;;;2.08;100.00;99541.13;109466;1253;64349;-73
2024/03/07 08:50:17;;;;;;;42.40;29.50;;;;;;;2.08;100.00;99542.35;109484;1252;59410;-72
2024/03/07 08:52:47;;;;;;;49.00;31.20;;;;;;;2.07;100.00;99543.05;107921;1253;1002304;-78
2024/03/07 08:55:16;;;;;;;40.80;27.50;;;;;;;2.07;100.00;99546.38;109511;1251;66167;-77
2024/03/07 08:57:45;;;;;;;44.10;27.20;;;;;;;2.08;100.00;99550.77;109572;1253;59027;-77
2024/03/07 09:00:22;;;;;;;47.70;27.30;;;;;;;2.05;100.00;99550.14;109486;1252;64114;-76
2024/03/07 09:02:51;;;;;;;39.30;26.10;;;;;;;2.02;100.00;99548.63;109502;1251;59049;-77
2024/03/07 09:05:20;;;;;;;38.80;26.00;;;;;;;2.00;100.00;99547.78;109484;1253;59011;-78
2024/03/07 09:07:46;;;;;;;41.40;25.80;;;;;;;2.00;100.00;99549.36;109482;1253;66099;-78
2024/03/07 09:10:17;;;;;;;43.70;28.50;;;;;;;2.00;100.00;99550.59;109479;1253;59360;-78
2024/03/07 09:12:44;;;;;;;42.50;28.40;;;;;;;1.99;100.00;99552.52;109477;1252;64070;-77
2024/03/07 09:15:11;;;;;;;37.90;26.00;;;;;;;1.99;100.00;99553.42;108703;1252;1002474;-76
2024/03/07 09:17:39;;;;;;;37.80;27.10;;;;;;;1.98;100.00;99556.05;109516;1253;60003;-77
2024/03/07 09:20:06;;;;;;;41.30;27.40;;;;;;;1.97;100.00;99559.41;109531;1253;66075;-78
2024/03/07 09:22:33;;;;;;;40.10;26.90;;;;;;;1.95;100.00;99561.23;109383;1252;59117;-77
2024/03/07 09:25:01;;;;;;;39.00;26.90;;;;;;;1.94;100.00;99562.10;109462;1252;62451;-77
2024/03/07 09:27:27;;;;;;;43.80;29.40;;;;;;;1.96;100.00;99565.22;109500;1253;59193;-76
2024/03/07 09:29:57;;;;;;;43.70;28.30;;;;;;;1.99;100.00;99571.28;109420;1253;59032;-78
2024/03/07 09:32:24;;;;;;;42.20;26.90;;;;;;;2.00;100.00;99574.44;109512;1253;64524;-77
2024/03/07 09:34:50;;;;;;;41.70;27.50;;;;;;;1.98;100.00;99573.77;109504;1251;59923;-77
2024/03/07 09:37:19;;;;;;;37.80;27.10;;;;;;;1.97;100.00;99577.30;109495;1253;63680;-77
2024/03/07 09:39:45;;;;;;;42.20;27.40;;;;;;;1.96;100.00;99579.05;109469;1253;58998;-78
2024/03/07 09:42:17;;;;;;;39.80;27.20;;;;;;;1.96;100.00;99581.20;109503;1252;58959;-77
2024/03/07 09:44:47;;;;;;;37.50;26.00;;;;;;;1.95;100.00;99580.52;109306;1251;287331;-77
2024/03/07 09:47:14;;;;;;;39.40;24.40;;;;;;;1.95;100.00;99579.96;108733;1253;1002573;-77
2024/03/07 09:49:40;;;;;;;40.20;26.10;;;;;;;1.96;100.00;99577.84;109483;1253;64062;-77
2024/03/07 09:52:11;;;;;;;34.00;24.10;;;;;;;1.96;100.00;99582.90;109445;1253;59433;-78
2024/03/07 09:54:40;;;;;;;38.70;25.30;;;;;;;1.96;100.00;99582.20;109554;1252;59089;-76
2024/03/07 09:57:07;;;;;;;40.40;26.20;;;;;;;1.95;100.00;99582.61;109359;1252;64830;-77
2024/03/07 09:59:36;;;;;;;39.00;25.90;;;;;;;1.94;100.00;99585.23;109470;1253;60143;-77
2024/03/07 10:02:05;;;;;;;39.30;27.50;;;;;;;1.94;100.00;99582.27;109521;1253;62501;-77
2024/03/07 10:04:40;;;;;;;38.60;25.10;;;;;;;1.95;100.00;99585.05;109506;1251;59056;-76
2024/03/07 10:07:11;;;;;;;38.70;26.20;;;;;;;1.94;100.00;99585.08;109497;1253;58957;-77
2024/03/07 10:09:40;;;;;;;44.60;28.60;;;;;;;1.92;100.00;99590.02;109450;1252;64888;-77
2024/03/07 10:12:09;;;;;;;44.90;29.90;;;;;;;1.92;100.00;99590.02;109463;1253;60130;-77
2024/03/07 10:14:37;;;;;;;39.30;27.90;;;;;;;1.92;100.00;99592.13;109495;1252;62807;-77
2024/03/07 10:17:04;;;;;;;41.00;26.90;;;;;;;1.92;100.00;99594.06;109474;1252;59279;-77
2024/03/07 10:19:30;;;;;;;42.90;28.30;;;;;;;1.93;100.00;99594.05;109523;1251;59077;-76
2024/03/07 10:22:01;;;;;;;43.60;28.60;;;;;;;1.94;100.00;99595.42;109535;1252;65857;-77
2024/03/07 10:24:28;;;;;;;47.60;30.80;;;;;;;1.93;100.00;99589.83;109515;1253;70210;-78
2024/03/07 10:26:58;;;;;;;46.90;28.70;;;;;;;1.91;100.00;99587.06;109476;1252;58976;-77
2024/03/07 10:29:25;;;;;;;44.40;30.20;;;;;;;1.89;100.00;99586.42;109499;1251;58999;-78
2024/03/07 10:31:52;;;;;;;51.30;32.30;;;;;;;1.87;100.00;99587.34;109563;1250;59112;-77
2024/03/07 10:34:18;;;;;;;46.80;30.40;;;;;;;1.88;100.00;99586.09;109357;1250;64521;-78
2024/03/07 10:36:45;;;;;;;46.50;32.30;;;;;;;1.90;100.00;99588.33;109566;1250;58982;-77
2024/03/07 10:39:14;;;;;;;49.40;29.70;;;;;;;1.93;100.00;99585.78;109570;1250;58950;-78
2024/03/07 10:41:48;;;;;;;46.60;29.10;;;;;;;1.97;100.00;99589.38;109565;1250;59025;-77
2024/03/07 10:44:22;;;;;;;47.00;27.80;;;;;;;2.02;100.00;99595.05;109354;1250;58969;-77
2024/03/07 10:46:53;;;;;;;46.00;29.00;;;;;;;2.04;100.00;99595.20;109569;1250;64819;-77
2024/03/07 10:49:24;;;;;;;52.30;32.50;;;;;;;2.03;100.00;99594.69;109348;1250;60174;-77
2024/03/07 10:52:12;;;;;;;48.70;31.70;;;;;;;2.04;100.00;99591.16;109542;1250;64053;-78
2024/03/07 10:54:54;;;;;;;48.10;30.40;;;;;;;2.06;100.00;99589.00;109574;1251;58955;-77
2024/03/07 10:58:01;;;;;;;56.50;34.30;;;;;;;2.09;100.00;99589.11;109599;1250;58895;-78
2024/03/07 11:00:35;;;;;;;52.40;30.10;;;;;;;2.15;100.00;99584.59;109022;1257;66040;-77
2024/03/07 11:03:11;;;;;;;51.50;30.80;;;;;;;2.22;100.00;99583.90;109021;1257;59221;-78
2024/03/07 11:05:39;;;;;;;49.60;29.50;;;;;;;2.32;100.00;99582.08;108978;1257;62878;-78
2024/03/07 11:08:11;;;;;;;54.70;34.90;;;;;;;2.41;100.00;99581.87;109006;1257;59007;-77
2024/03/07 11:10:38;;;;;;;49.80;31.50;;;;;;;2.50;100.00;99582.89;109031;1258;59129;-78
2024/03/07 11:13:12;;;;;;;55.30;31.20;;;;;;;2.55;100.00;99587.33;109011;1257;66108;-77